sensor_id;sensor_type;location;lat;lon;timestamp;pressure;altitude;pressure_sealevel;temperature;humidity
34237;BME280;20501;45.956;13.632;2023-04-09T00:00:19;101039.94;;;12.02;50.77
34237;BME280;20501;45.956;13.632;2023-04-09T00:02:45;101040.44;;;12.47;51.89
34237;BME280;20501;45.956;13.632;2023-04-09T00:05:10;101031.59;;;11.22;51.88
34237;BME280;20501;45.956;13.632;2023-04-09T00:07:36;101039.00;;;10.88;52.72
34237;BME280;20501;45.956;13.632;2023-04-09T00:10:01;101034.94;;;12.07;50.07
34237;BME280;20501;45.956;13.632;2023-04-09T00:12:26;101035.31;;;11.31;51.41
34237;BME280;20501;45.956;13.632;2023-04-09T00:14:54;101036.72;;;11.56;53.37
34237;BME280;20501;45.956;13.632;2023-04-09T00:17:20;101038.13;;;11.82;52.75
34237;BME280;20501;45.956;13.632;2023-04-09T00:19:45;101036.59;;;11.06;53.25
34237;BME280;20501;45.956;13.632;2023-04-09T00:22:11;101040.53;;;9.93;57.44
34237;BME280;20501;45.956;13.632;2023-04-09T00:24:36;101033.38;;;10.03;57.82
34237;BME280;20501;45.956;13.632;2023-04-09T00:27:01;101039.44;;;11.04;55.62
34237;BME280;20501;45.956;13.632;2023-04-09T00:29:27;101034.22;;;11.74;53.71
34237;BME280;20501;45.956;13.632;2023-04-09T00:31:52;101037.31;;;11.08;54.59
34237;BME280;20501;45.956;13.632;2023-04-09T00:34:18;101026.72;;;10.30;56.43
34237;BME280;20501;45.956;13.632;2023-04-09T00:36:43;101032.63;;;10.89;53.73
34237;BME280;20501;45.956;13.632;2023-04-09T00:39:08;101038.84;;;10.35;55.43
34237;BME280;20501;45.956;13.632;2023-04-09T00:41:34;101041.97;;;10.08;55.89
34237;BME280;20501;45.956;13.632;2023-04-09T00:43:59;101039.91;;;9.89;56.81
34237;BME280;20501;45.956;13.632;2023-04-09T00:46:25;101032.94;;;9.86;57.18
34237;BME280;20501;45.956;13.632;2023-04-09T00:48:50;101046.53;;;9.85;57.51
34237;BME280;20501;45.956;13.632;2023-04-09T00:51:16;101058.31;;;9.72;57.49
34237;BME280;20501;45.956;13.632;2023-04-09T00:53:41;101053.91;;;9.60;57.47
34237;BME280;20501;45.956;13.632;2023-04-09T00:56:09;101047.78;;;9.58;57.72
34237;BME280;20501;45.956;13.632;2023-04-09T00:58:35;101051.47;;;10.35;56.67
34237;BME280;20501;45.956;13.632;2023-04-09T01:01:01;101050.31;;;10.60;54.96
34237;BME280;20501;45.956;13.632;2023-04-09T01:03:26;101049.56;;;10.91;54.48
34237;BME280;20501;45.956;13.632;2023-04-09T01:06:25;101048.31;;;11.37;54.14
34237;BME280;20501;45.956;13.632;2023-04-09T01:11:45;101050.16;;;10.94;55.54
34237;BME280;20501;45.956;13.632;2023-04-09T01:14:23;101050.56;;;11.32;53.82
34237;BME280;20501;45.956;13.632;2023-04-09T01:16:54;101044.94;;;11.76;52.87
34237;BME280;20501;45.956;13.632;2023-04-09T01:22:01;101053.69;;;12.69;50.55
34237;BME280;20501;45.956;13.632;2023-04-09T01:24:43;101056.97;;;12.53;51.03
34237;BME280;20501;45.956;13.632;2023-04-09T01:27:16;101051.53;;;12.34;51.15
34237;BME280;20501;45.956;13.632;2023-04-09T01:29:46;101049.00;;;12.62;50.49
34237;BME280;20501;45.956;13.632;2023-04-09T01:32:15;101050.06;;;12.20;51.71
34237;BME280;20501;45.956;13.632;2023-04-09T01:34:46;101052.91;;;12.08;52.49
34237;BME280;20501;45.956;13.632;2023-04-09T01:37:13;101056.97;;;12.53;50.94
34237;BME280;20501;45.956;13.632;2023-04-09T01:39:40;101047.72;;;12.56;49.59
34237;BME280;20501;45.956;13.632;2023-04-09T01:42:08;101045.81;;;12.27;51.62
34237;BME280;20501;45.956;13.632;2023-04-09T01:44:37;101037.69;;;12.17;51.10
34237;BME280;20501;45.956;13.632;2023-04-09T01:47:03;101048.34;;;12.19;52.27
34237;BME280;20501;45.956;13.632;2023-04-09T01:49:30;101049.34;;;12.08;52.35
34237;BME280;20501;45.956;13.632;2023-04-09T01:51:56;101050.88;;;11.70;52.63
34237;BME280;20501;45.956;13.632;2023-04-09T01:54:21;101028.84;;;12.54;50.92
34237;BME280;20501;45.956;13.632;2023-04-09T01:56:47;101049.56;;;12.85;50.48
34237;BME280;20501;45.956;13.632;2023-04-09T01:59:13;101055.06;;;12.25;50.25
34237;BME280;20501;45.956;13.632;2023-04-09T02:01:47;101045.91;;;12.06;51.45
34237;BME280;20501;45.956;13.632;2023-04-09T02:04:32;101048.00;;;12.82;50.50
34237;BME280;20501;45.956;13.632;2023-04-09T02:07:05;101042.69;;;12.42;48.86
34237;BME280;20501;45.956;13.632;2023-04-09T02:09:35;101046.97;;;12.34;51.51
34237;BME280;20501;45.956;13.632;2023-04-09T02:12:06;101049.47;;;11.44;53.59
34237;BME280;20501;45.956;13.632;2023-04-09T02:14:35;101041.78;;;11.40;53.97
34237;BME280;20501;45.956;13.632;2023-04-09T02:17:01;101050.69;;;11.92;52.72
34237;BME280;20501;45.956;13.632;2023-04-09T02:19:41;101053.66;;;11.49;54.16
34237;BME280;20501;45.956;13.632;2023-04-09T02:22:07;101038.56;;;12.47;51.15
34237;BME280;20501;45.956;13.632;2023-04-09T02:24:33;101050.50;;;12.15;49.94
34237;BME280;20501;45.956;13.632;2023-04-09T02:26:58;101044.94;;;10.49;52.27
34237;BME280;20501;45.956;13.632;2023-04-09T02:29:24;101044.84;;;9.38;55.09
34237;BME280;20501;45.956;13.632;2023-04-09T02:31:49;101045.69;;;9.62;55.06
34237;BME280;20501;45.956;13.632;2023-04-09T02:34:17;101047.69;;;10.37;54.96
34237;BME280;20501;45.956;13.632;2023-04-09T02:36:43;101058.66;;;11.32;52.46
34237;BME280;20501;45.956;13.632;2023-04-09T02:39:08;101057.34;;;12.19;51.17
34237;BME280;20501;45.956;13.632;2023-04-09T02:41:34;101053.13;;;11.96;50.81
34237;BME280;20501;45.956;13.632;2023-04-09T02:43:59;101047.41;;;10.84;51.14
34237;BME280;20501;45.956;13.632;2023-04-09T02:46:25;101042.16;;;10.50;55.53
34237;BME280;20501;45.956;13.632;2023-04-09T02:48:50;101052.03;;;11.77;52.12
34237;BME280;20501;45.956;13.632;2023-04-09T02:51:16;101046.22;;;12.22;50.61
34237;BME280;20501;45.956;13.632;2023-04-09T02:53:41;101045.66;;;11.47;52.37
34237;BME280;20501;45.956;13.632;2023-04-09T02:56:06;101043.25;;;11.85;51.64
34237;BME280;20501;45.956;13.632;2023-04-09T02:58:32;101049.63;;;11.22;51.83
34237;BME280;20501;45.956;13.632;2023-04-09T03:00:57;101047.19;;;11.71;49.20
34237;BME280;20501;45.956;13.632;2023-04-09T03:03:22;101039.78;;;10.02;53.98
34237;BME280;20501;45.956;13.632;2023-04-09T03:05:48;101048.06;;;10.77;55.44
34237;BME280;20501;45.956;13.632;2023-04-09T03:08:13;101036.50;;;11.17;51.46
34237;BME280;20501;45.956;13.632;2023-04-09T03:10:39;101036.25;;;12.33;51.22
34237;BME280;20501;45.956;13.632;2023-04-09T03:13:04;101038.03;;;10.89;55.03
34237;BME280;20501;45.956;13.632;2023-04-09T03:15:29;101034.13;;;11.86;50.23
34237;BME280;20501;45.956;13.632;2023-04-09T03:17:55;101033.03;;;9.85;55.55
34237;BME280;20501;45.956;13.632;2023-04-09T03:20:20;101042.09;;;11.77;52.89
34237;BME280;20501;45.956;13.632;2023-04-09T03:22:46;101039.56;;;12.46;50.77
34237;BME280;20501;45.956;13.632;2023-04-09T03:25:11;101044.63;;;11.69;51.03
34237;BME280;20501;45.956;13.632;2023-04-09T03:27:36;101044.72;;;12.49;50.76
34237;BME280;20501;45.956;13.632;2023-04-09T03:30:02;101040.28;;;12.78;49.85
34237;BME280;20501;45.956;13.632;2023-04-09T03:32:27;101042.66;;;11.19;52.47
34237;BME280;20501;45.956;13.632;2023-04-09T03:34:53;101042.28;;;12.56;50.64
34237;BME280;20501;45.956;13.632;2023-04-09T03:37:18;101046.28;;;11.08;52.38
34237;BME280;20501;45.956;13.632;2023-04-09T03:39:44;101049.97;;;9.98;56.65
34237;BME280;20501;45.956;13.632;2023-04-09T03:42:09;101043.97;;;11.87;51.79
34237;BME280;20501;45.956;13.632;2023-04-09T03:44:35;101040.81;;;11.51;53.16
34237;BME280;20501;45.956;13.632;2023-04-09T03:47:00;101040.78;;;11.41;52.77
34237;BME280;20501;45.956;13.632;2023-04-09T03:49:25;101037.84;;;12.45;51.08
34237;BME280;20501;45.956;13.632;2023-04-09T03:51:51;101036.50;;;12.10;50.63
34237;BME280;20501;45.956;13.632;2023-04-09T03:54:16;101044.31;;;11.63;53.60
34237;BME280;20501;45.956;13.632;2023-04-09T03:56:42;101040.44;;;12.47;51.02
34237;BME280;20501;45.956;13.632;2023-04-09T03:59:07;101044.91;;;11.45;53.75
34237;BME280;20501;45.956;13.632;2023-04-09T04:01:33;101056.09;;;12.43;51.23
34237;BME280;20501;45.956;13.632;2023-04-09T04:03:58;101052.13;;;12.47;50.83
34237;BME280;20501;45.956;13.632;2023-04-09T04:06:24;101042.00;;;12.98;49.73
34237;BME280;20501;45.956;13.632;2023-04-09T04:08:49;101041.13;;;13.08;49.39
34237;BME280;20501;45.956;13.632;2023-04-09T04:11:15;101042.22;;;12.07;51.22
34237;BME280;20501;45.956;13.632;2023-04-09T04:13:40;101046.13;;;10.89;52.94
34237;BME280;20501;45.956;13.632;2023-04-09T04:16:07;101050.44;;;10.15;55.79
34237;BME280;20501;45.956;13.632;2023-04-09T04:18:33;101051.28;;;11.13;54.50
34237;BME280;20501;45.956;13.632;2023-04-09T04:20:58;101055.81;;;12.46;51.26
34237;BME280;20501;45.956;13.632;2023-04-09T04:23:23;101055.25;;;12.82;49.96
34237;BME280;20501;45.956;13.632;2023-04-09T04:25:49;101055.13;;;12.83;49.51
34237;BME280;20501;45.956;13.632;2023-04-09T04:28:14;101060.88;;;10.08;54.48
34237;BME280;20501;45.956;13.632;2023-04-09T04:30:41;101059.34;;;10.49;53.80
34237;BME280;20501;45.956;13.632;2023-04-09T04:33:07;101066.31;;;11.48;53.87
34237;BME280;20501;45.956;13.632;2023-04-09T04:35:32;101066.09;;;10.44;54.95
34237;BME280;20501;45.956;13.632;2023-04-09T04:37:57;101055.47;;;10.96;54.44
34237;BME280;20501;45.956;13.632;2023-04-09T04:40:23;101056.09;;;12.43;51.23
34237;BME280;20501;45.956;13.632;2023-04-09T04:42:48;101069.19;;;12.18;51.77
34237;BME280;20501;45.956;13.632;2023-04-09T04:45:13;101064.84;;;12.66;50.28
34237;BME280;20501;45.956;13.632;2023-04-09T04:47:39;101062.56;;;12.62;50.08
34237;BME280;20501;45.956;13.632;2023-04-09T04:50:05;101074.69;;;12.67;50.51
34237;BME280;20501;45.956;13.632;2023-04-09T04:52:31;101065.38;;;12.90;49.60
34237;BME280;20501;45.956;13.632;2023-04-09T04:54:56;101071.09;;;12.47;51.02
34237;BME280;20501;45.956;13.632;2023-04-09T04:57:22;101073.53;;;12.50;49.63
34237;BME280;20501;45.956;13.632;2023-04-09T04:59:47;101063.97;;;12.66;50.24
34237;BME280;20501;45.956;13.632;2023-04-09T05:02:13;101068.59;;;12.15;51.27
34237;BME280;20501;45.956;13.632;2023-04-09T05:04:38;101076.06;;;12.42;49.97
34237;BME280;20501;45.956;13.632;2023-04-09T05:07:03;101064.78;;;11.86;51.88
34237;BME280;20501;45.956;13.632;2023-04-09T05:09:29;101073.31;;;11.82;51.96
34237;BME280;20501;45.956;13.632;2023-04-09T05:11:54;101069.19;;;11.87;51.67
34237;BME280;20501;45.956;13.632;2023-04-09T05:14:21;101074.41;;;12.00;51.21
34237;BME280;20501;45.956;13.632;2023-04-09T05:16:47;101073.91;;;11.95;51.04
34237;BME280;20501;45.956;13.632;2023-04-09T05:19:12;101075.88;;;11.52;52.63
34237;BME280;20501;45.956;13.632;2023-04-09T05:21:38;101082.47;;;12.31;50.91
34237;BME280;20501;45.956;13.632;2023-04-09T05:24:03;101079.53;;;11.20;51.98
34237;BME280;20501;45.956;13.632;2023-04-09T05:26:29;101078.19;;;10.93;51.39
34237;BME280;20501;45.956;13.632;2023-04-09T05:28:54;101069.25;;;11.45;52.99
34237;BME280;20501;45.956;13.632;2023-04-09T05:31:20;101073.13;;;11.00;52.21
34237;BME280;20501;45.956;13.632;2023-04-09T05:33:45;101081.84;;;11.25;53.21
34237;BME280;20501;45.956;13.632;2023-04-09T05:36:15;101083.22;;;11.19;51.72
34237;BME280;20501;45.956;13.632;2023-04-09T05:38:42;101087.09;;;11.26;52.66
34237;BME280;20501;45.956;13.632;2023-04-09T05:41:08;101092.47;;;11.69;52.18
34237;BME280;20501;45.956;13.632;2023-04-09T05:43:33;101096.00;;;12.31;50.53
34237;BME280;20501;45.956;13.632;2023-04-09T05:45:58;101097.47;;;12.45;50.11
34237;BME280;20501;45.956;13.632;2023-04-09T05:48:24;101099.16;;;11.43;51.13
34237;BME280;20501;45.956;13.632;2023-04-09T05:50:50;101096.59;;;11.21;53.63
34237;BME280;20501;45.956;13.632;2023-04-09T05:53:17;101100.38;;;11.29;52.21
34237;BME280;20501;45.956;13.632;2023-04-09T05:55:43;101110.81;;;11.86;51.66
34237;BME280;20501;45.956;13.632;2023-04-09T05:58:08;101109.75;;;11.77;51.21
34237;BME280;20501;45.956;13.632;2023-04-09T06:00:33;101113.78;;;12.14;50.87
34237;BME280;20501;45.956;13.632;2023-04-09T06:02:59;101106.47;;;11.53;50.24
34237;BME280;20501;45.956;13.632;2023-04-09T06:05:24;101106.56;;;11.20;51.81
34237;BME280;20501;45.956;13.632;2023-04-09T06:07:50;101113.59;;;11.75;51.57
34237;BME280;20501;45.956;13.632;2023-04-09T06:10:15;101111.38;;;11.59;50.99
34237;BME280;20501;45.956;13.632;2023-04-09T06:12:40;101109.34;;;11.82;51.18
34237;BME280;20501;45.956;13.632;2023-04-09T06:15:06;101111.31;;;12.01;50.47
34237;BME280;20501;45.956;13.632;2023-04-09T06:17:31;101116.31;;;11.54;51.83
34237;BME280;20501;45.956;13.632;2023-04-09T06:19:57;101113.28;;;11.68;49.62
34237;BME280;20501;45.956;13.632;2023-04-09T06:22:22;101117.47;;;12.13;50.02
34237;BME280;20501;45.956;13.632;2023-04-09T06:24:48;101113.69;;;12.26;50.36
34237;BME280;20501;45.956;13.632;2023-04-09T06:27:13;101114.84;;;11.71;50.66
34237;BME280;20501;45.956;13.632;2023-04-09T06:29:39;101116.78;;;11.59;48.87
34237;BME280;20501;45.956;13.632;2023-04-09T06:32:04;101119.09;;;11.21;48.27
34237;BME280;20501;45.956;13.632;2023-04-09T06:34:29;101121.03;;;10.98;48.93
34237;BME280;20501;45.956;13.632;2023-04-09T06:36:55;101128.78;;;10.70;48.52
34237;BME280;20501;45.956;13.632;2023-04-09T06:39:21;101129.69;;;11.13;48.32
34237;BME280;20501;45.956;13.632;2023-04-09T06:41:46;101124.03;;;10.40;48.86
34237;BME280;20501;45.956;13.632;2023-04-09T06:44:12;101126.25;;;10.46;48.57
34237;BME280;20501;45.956;13.632;2023-04-09T06:46:37;101123.91;;;10.52;49.67
34237;BME280;20501;45.956;13.632;2023-04-09T06:49:03;101138.00;;;10.67;50.25
34237;BME280;20501;45.956;13.632;2023-04-09T06:51:28;101132.44;;;10.80;49.38
34237;BME280;20501;45.956;13.632;2023-04-09T06:53:53;101137.63;;;11.26;50.65
34237;BME280;20501;45.956;13.632;2023-04-09T06:56:19;101133.31;;;12.18;49.22
34237;BME280;20501;45.956;13.632;2023-04-09T06:58:44;101136.38;;;11.51;46.73
34237;BME280;20501;45.956;13.632;2023-04-09T07:01:11;101134.25;;;10.80;48.70
34237;BME280;20501;45.956;13.632;2023-04-09T07:03:36;101135.72;;;11.59;50.56
34237;BME280;20501;45.956;13.632;2023-04-09T07:06:02;101143.56;;;12.14;49.11
34237;BME280;20501;45.956;13.632;2023-04-09T07:08:28;101136.38;;;11.30;46.63
34237;BME280;20501;45.956;13.632;2023-04-09T07:10:53;101141.13;;;12.11;48.74
34237;BME280;20501;45.956;13.632;2023-04-09T07:13:18;101141.59;;;11.43;48.56
34237;BME280;20501;45.956;13.632;2023-04-09T07:15:44;101148.34;;;11.49;46.83
34237;BME280;20501;45.956;13.632;2023-04-09T07:18:10;101137.47;;;11.91;47.98
34237;BME280;20501;45.956;13.632;2023-04-09T07:20:35;101147.25;;;12.54;47.27
34237;BME280;20501;45.956;13.632;2023-04-09T07:23:00;101153.53;;;11.61;46.20
34237;BME280;20501;45.956;13.632;2023-04-09T07:25:26;101149.94;;;11.82;49.34
34237;BME280;20501;45.956;13.632;2023-04-09T07:27:52;101155.97;;;12.17;46.56
34237;BME280;20501;45.956;13.632;2023-04-09T07:30:17;101163.22;;;12.47;47.96
34237;BME280;20501;45.956;13.632;2023-04-09T07:32:43;101149.78;;;12.36;47.84
34237;BME280;20501;45.956;13.632;2023-04-09T07:35:08;101157.00;;;12.66;46.80
34237;BME280;20501;45.956;13.632;2023-04-09T07:37:34;101154.41;;;12.65;44.83
34237;BME280;20501;45.956;13.632;2023-04-09T07:40:01;101152.84;;;12.21;44.60
34237;BME280;20501;45.956;13.632;2023-04-09T07:42:28;101168.72;;;12.77;46.45
34237;BME280;20501;45.956;13.632;2023-04-09T07:44:53;101154.59;;;11.70;46.49
34237;BME280;20501;45.956;13.632;2023-04-09T07:47:21;101155.53;;;12.12;46.56
34237;BME280;20501;45.956;13.632;2023-04-09T07:49:47;101155.44;;;11.92;44.76
34237;BME280;20501;45.956;13.632;2023-04-09T07:52:12;101146.53;;;12.11;46.22
34237;BME280;20501;45.956;13.632;2023-04-09T07:54:38;101152.88;;;11.27;47.47
34237;BME280;20501;45.956;13.632;2023-04-09T07:57:03;101157.75;;;12.28;48.18
34237;BME280;20501;45.956;13.632;2023-04-09T07:59:29;101155.56;;;12.72;47.04
34237;BME280;20501;45.956;13.632;2023-04-09T08:01:55;101156.53;;;12.61;47.39
34237;BME280;20501;45.956;13.632;2023-04-09T08:04:21;101157.00;;;12.76;46.26
34237;BME280;20501;45.956;13.632;2023-04-09T08:06:46;101161.59;;;12.95;44.64
34237;BME280;20501;45.956;13.632;2023-04-09T08:09:18;101158.09;;;12.54;44.50
34237;BME280;20501;45.956;13.632;2023-04-09T08:11:44;101162.88;;;12.81;46.35
34237;BME280;20501;45.956;13.632;2023-04-09T08:14:11;101171.66;;;12.64;44.46
34237;BME280;20501;45.956;13.632;2023-04-09T08:16:42;101172.50;;;12.45;44.05
34237;BME280;20501;45.956;13.632;2023-04-09T08:19:08;101164.28;;;12.76;45.05
34237;BME280;20501;45.956;13.632;2023-04-09T08:21:38;101171.97;;;12.20;45.17
34237;BME280;20501;45.956;13.632;2023-04-09T08:24:04;101168.50;;;11.87;45.40
34237;BME280;20501;45.956;13.632;2023-04-09T08:26:31;101167.84;;;11.95;45.60
34237;BME280;20501;45.956;13.632;2023-04-09T08:28:56;101174.69;;;11.99;44.79
34237;BME280;20501;45.956;13.632;2023-04-09T08:31:22;101173.03;;;11.98;44.32
34237;BME280;20501;45.956;13.632;2023-04-09T08:33:47;101179.28;;;11.98;45.19
34237;BME280;20501;45.956;13.632;2023-04-09T08:36:13;101179.13;;;12.00;44.84
34237;BME280;20501;45.956;13.632;2023-04-09T08:38:38;101178.84;;;12.34;45.06
34237;BME280;20501;45.956;13.632;2023-04-09T08:41:04;101174.53;;;12.21;44.79
34237;BME280;20501;45.956;13.632;2023-04-09T08:43:31;101182.84;;;12.30;45.10
34237;BME280;20501;45.956;13.632;2023-04-09T08:46:00;101184.78;;;12.59;43.86
34237;BME280;20501;45.956;13.632;2023-04-09T08:48:27;101174.25;;;12.15;43.69
34237;BME280;20501;45.956;13.632;2023-04-09T08:50:52;101187.13;;;12.32;44.89
34237;BME280;20501;45.956;13.632;2023-04-09T08:53:19;101188.38;;;12.69;45.67
34237;BME280;20501;45.956;13.632;2023-04-09T08:55:47;101180.28;;;12.79;43.52
34237;BME280;20501;45.956;13.632;2023-04-09T08:58:12;101188.59;;;12.46;43.51
34237;BME280;20501;45.956;13.632;2023-04-09T09:00:38;101182.34;;;12.56;44.78
34237;BME280;20501;45.956;13.632;2023-04-09T09:03:09;101183.31;;;12.45;44.19
34237;BME280;20501;45.956;13.632;2023-04-09T09:05:43;101183.53;;;12.73;45.29
34237;BME280;20501;45.956;13.632;2023-04-09T09:08:13;101181.09;;;12.69;44.86
34237;BME280;20501;45.956;13.632;2023-04-09T09:10:46;101174.31;;;12.44;43.26
34237;BME280;20501;45.956;13.632;2023-04-09T09:13:24;101179.56;;;12.87;44.53
34237;BME280;20501;45.956;13.632;2023-04-09T09:15:50;101184.69;;;12.90;43.17
34237;BME280;20501;45.956;13.632;2023-04-09T09:18:20;101174.44;;;13.13;43.32
34237;BME280;20501;45.956;13.632;2023-04-09T09:20:46;101173.16;;;13.07;42.69
34237;BME280;20501;45.956;13.632;2023-04-09T09:23:11;101178.25;;;12.81;41.95
34237;BME280;20501;45.956;13.632;2023-04-09T09:25:40;101173.50;;;12.53;42.70
34237;BME280;20501;45.956;13.632;2023-04-09T09:28:10;101175.66;;;12.69;44.15
34237;BME280;20501;45.956;13.632;2023-04-09T09:30:37;101176.44;;;12.41;43.25
34237;BME280;20501;45.956;13.632;2023-04-09T09:33:08;101168.31;;;12.41;43.99
34237;BME280;20501;45.956;13.632;2023-04-09T09:35:51;101172.25;;;12.67;42.47
34237;BME280;20501;45.956;13.632;2023-04-09T09:38:18;101173.28;;;12.96;43.86
34237;BME280;20501;45.956;13.632;2023-04-09T09:40:44;101168.28;;;12.91;43.40
34237;BME280;20501;45.956;13.632;2023-04-09T09:43:10;101170.28;;;13.19;43.55
34237;BME280;20501;45.956;13.632;2023-04-09T09:45:36;101160.72;;;13.05;41.54
34237;BME280;20501;45.956;13.632;2023-04-09T09:48:04;101166.03;;;13.16;42.32
34237;BME280;20501;45.956;13.632;2023-04-09T09:50:29;101166.59;;;13.20;42.39
34237;BME280;20501;45.956;13.632;2023-04-09T09:53:02;101167.00;;;13.15;43.48
34237;BME280;20501;45.956;13.632;2023-04-09T09:55:32;101156.44;;;13.22;42.21
34237;BME280;20501;45.956;13.632;2023-04-09T09:58:01;101160.56;;;13.36;43.88
34237;BME280;20501;45.956;13.632;2023-04-09T10:00:30;101162.59;;;12.84;43.02
34237;BME280;20501;45.956;13.632;2023-04-09T10:02:58;101157.88;;;13.16;43.63
34237;BME280;20501;45.956;13.632;2023-04-09T10:05:28;101164.44;;;12.94;42.66
34237;BME280;20501;45.956;13.632;2023-04-09T10:07:56;101156.47;;;13.12;42.15
34237;BME280;20501;45.956;13.632;2023-04-09T10:10:22;101153.88;;;13.10;41.91
34237;BME280;20501;45.956;13.632;2023-04-09T10:12:49;101144.59;;;13.23;43.46
34237;BME280;20501;45.956;13.632;2023-04-09T10:15:17;101154.00;;;12.79;44.80
34237;BME280;20501;45.956;13.632;2023-04-09T10:17:43;101155.31;;;13.14;45.66
34237;BME280;20501;45.956;13.632;2023-04-09T10:20:15;101152.59;;;13.24;43.95
34237;BME280;20501;45.956;13.632;2023-04-09T10:22:45;101155.00;;;12.98;42.46
34237;BME280;20501;45.956;13.632;2023-04-09T10:25:12;101157.44;;;12.91;43.61
34237;BME280;20501;45.956;13.632;2023-04-09T10:27:38;101153.88;;;13.10;43.65
34237;BME280;20501;45.956;13.632;2023-04-09T10:30:03;101145.59;;;13.02;43.30
34237;BME280;20501;45.956;13.632;2023-04-09T10:32:34;101143.31;;;13.07;42.01
34237;BME280;20501;45.956;13.632;2023-04-09T10:35:01;101149.16;;;12.73;42.66
34237;BME280;20501;45.956;13.632;2023-04-09T10:37:27;101149.41;;;12.60;42.09
34237;BME280;20501;45.956;13.632;2023-04-09T10:39:54;101143.31;;;12.78;44.15
34237;BME280;20501;45.956;13.632;2023-04-09T10:42:29;101139.66;;;12.38;43.68
34237;BME280;20501;45.956;13.632;2023-04-09T10:45:05;101139.28;;;12.52;43.70
34237;BME280;20501;45.956;13.632;2023-04-09T10:47:41;101137.44;;;12.63;43.45
34237;BME280;20501;45.956;13.632;2023-04-09T10:50:23;101139.72;;;12.58;42.45
34237;BME280;20501;45.956;13.632;2023-04-09T10:52:56;101138.75;;;12.68;44.78
34237;BME280;20501;45.956;13.632;2023-04-09T10:55:34;101141.16;;;12.81;44.13
34237;BME280;20501;45.956;13.632;2023-04-09T10:58:07;101139.47;;;12.90;44.25
34237;BME280;20501;45.956;13.632;2023-04-09T11:00:37;101138.28;;;12.63;43.07
34237;BME280;20501;45.956;13.632;2023-04-09T11:03:19;101128.91;;;12.67;44.08
34237;BME280;20501;45.956;13.632;2023-04-09T11:05:47;101131.47;;;12.79;42.86
34237;BME280;20501;45.956;13.632;2023-04-09T11:08:15;101129.34;;;12.82;42.30
34237;BME280;20501;45.956;13.632;2023-04-09T11:10:42;101122.91;;;12.74;43.44
34237;BME280;20501;45.956;13.632;2023-04-09T11:13:16;101125.03;;;12.70;42.62
34237;BME280;20501;45.956;13.632;2023-04-09T11:15:43;101119.59;;;12.80;43.43
34237;BME280;20501;45.956;13.632;2023-04-09T11:18:14;101119.19;;;12.75;42.47
34237;BME280;20501;45.956;13.632;2023-04-09T11:20:40;101130.31;;;12.72;42.60
34237;BME280;20501;45.956;13.632;2023-04-09T11:23:05;101123.63;;;13.05;43.55
34237;BME280;20501;45.956;13.632;2023-04-09T11:25:32;101120.19;;;12.74;43.91
34237;BME280;20501;45.956;13.632;2023-04-09T11:27:59;101117.47;;;12.93;42.16
34237;BME280;20501;45.956;13.632;2023-04-09T11:30:26;101119.34;;;12.93;41.84
34237;BME280;20501;45.956;13.632;2023-04-09T11:32:53;101129.03;;;12.95;41.89
34237;BME280;20501;45.956;13.632;2023-04-09T11:35:20;101119.22;;;13.04;41.64
34237;BME280;20501;45.956;13.632;2023-04-09T11:37:47;101117.34;;;13.14;41.54
34237;BME280;20501;45.956;13.632;2023-04-09T11:40:14;101120.06;;;13.14;41.71
34237;BME280;20501;45.956;13.632;2023-04-09T11:42:41;101123.19;;;13.10;42.15
34237;BME280;20501;45.956;13.632;2023-04-09T11:45:08;101113.03;;;13.22;42.13
34237;BME280;20501;45.956;13.632;2023-04-09T11:47:33;101121.34;;;13.10;41.99
34237;BME280;20501;45.956;13.632;2023-04-09T11:49:59;101122.19;;;13.01;41.98
34237;BME280;20501;45.956;13.632;2023-04-09T11:52:25;101127.03;;;13.07;41.75
34237;BME280;20501;45.956;13.632;2023-04-09T11:54:52;101126.19;;;12.97;41.42
34237;BME280;20501;45.956;13.632;2023-04-09T11:57:17;101121.34;;;13.20;42.36
34237;BME280;20501;45.956;13.632;2023-04-09T11:59:43;101121.75;;;13.35;40.95
34237;BME280;20501;45.956;13.632;2023-04-09T12:02:08;101117.75;;;13.49;42.12
34237;BME280;20501;45.956;13.632;2023-04-09T12:04:34;101114.16;;;13.58;41.67
34237;BME280;20501;45.956;13.632;2023-04-09T12:06:59;101104.19;;;13.49;43.60
34237;BME280;20501;45.956;13.632;2023-04-09T12:09:25;101116.31;;;13.55;39.91
34237;BME280;20501;45.956;13.632;2023-04-09T12:11:50;101105.91;;;13.40;40.16
34237;BME280;20501;45.956;13.632;2023-04-09T12:14:17;101111.75;;;13.45;39.76
34237;BME280;20501;45.956;13.632;2023-04-09T12:16:43;101102.50;;;13.09;40.56
34237;BME280;20501;45.956;13.632;2023-04-09T12:19:12;101107.63;;;13.41;41.14
34237;BME280;20501;45.956;13.632;2023-04-09T12:21:52;101103.13;;;13.70;41.46
34237;BME280;20501;45.956;13.632;2023-04-09T12:24:20;101095.84;;;13.60;40.30
34237;BME280;20501;45.956;13.632;2023-04-09T12:26:47;101094.53;;;13.74;42.12
34237;BME280;20501;45.956;13.632;2023-04-09T12:29:13;101099.16;;;13.35;41.52
34237;BME280;20501;45.956;13.632;2023-04-09T12:31:40;101100.84;;;13.65;40.26
34237;BME280;20501;45.956;13.632;2023-04-09T12:34:05;101109.03;;;13.45;40.37
34237;BME280;20501;45.956;13.632;2023-04-09T12:36:30;101101.56;;;13.67;40.05
34237;BME280;20501;45.956;13.632;2023-04-09T12:38:56;101092.34;;;13.78;41.97
34237;BME280;20501;45.956;13.632;2023-04-09T12:41:21;101092.44;;;13.96;39.26
34237;BME280;20501;45.956;13.632;2023-04-09T12:43:47;101097.13;;;14.04;39.37